sensor_id;sensor_type;location;lat;lon;timestamp;pressure;altitude;pressure_sealevel;temperature;humidity
66543;BME280;53395;37.360;-122.046;2022-07-29T00:00:59;100734.03;;;22.57;70.21
66543;BME280;53395;37.360;-122.046;2022-07-29T00:03:26;100746.78;;;22.26;70.43
66543;BME280;53395;37.360;-122.046;2022-07-29T00:05:52;100738.19;;;22.99;69.40
66543;BME280;53395;37.360;-122.046;2022-07-29T00:08:19;100737.28;;;22.22;72.49
66543;BME280;53395;37.360;-122.046;2022-07-29T00:10:45;100736.44;;;22.22;72.81
66543;BME280;53395;37.360;-122.046;2022-07-29T00:13:12;100738.19;;;21.68;74.76
66543;BME280;53395;37.360;-122.046;2022-07-29T00:15:38;100736.31;;;21.83;74.40
66543;BME280;53395;37.360;-122.046;2022-07-29T00:18:04;100742.41;;;21.44;75.51
66543;BME280;53395;37.360;-122.046;2022-07-29T00:20:31;100729.63;;;21.63;74.95
66543;BME280;53395;37.360;-122.046;2022-07-29T00:22:57;100746.19;;;21.25;76.85
66543;BME280;53395;37.360;-122.046;2022-07-29T00:25:23;100729.09;;;21.85;75.20
66543;BME280;53395;37.360;-122.046;2022-07-29T00:27:50;100738.59;;;21.75;75.12
66543;BME280;53395;37.360;-122.046;2022-07-29T00:30:16;100735.94;;;22.02;75.16
66543;BME280;53395;37.360;-122.046;2022-07-29T00:32:42;100735.44;;;22.63;72.42
66543;BME280;53395;37.360;-122.046;2022-07-29T00:35:09;100737.09;;;21.98;73.06
66543;BME280;53395;37.360;-122.046;2022-07-29T00:37:53;100738.38;;;22.32;72.28
66543;BME280;53395;37.360;-122.046;2022-07-29T00:40:20;100753.22;;;22.09;73.59
66543;BME280;53395;37.360;-122.046;2022-07-29T00:42:48;100746.19;;;22.08;73.10
66543;BME280;53395;37.360;-122.046;2022-07-29T00:45:15;100755.91;;;22.22;73.14
66543;BME280;53395;37.360;-122.046;2022-07-29T00:47:41;100759.66;;;21.51;76.89
66543;BME280;53395;37.360;-122.046;2022-07-29T00:50:10;100756.53;;;21.30;77.92
66543;BME280;53395;37.360;-122.046;2022-07-29T00:52:39;100756.34;;;21.62;75.93
66543;BME280;53395;37.360;-122.046;2022-07-29T00:55:08;100755.63;;;22.00;75.17
66543;BME280;53395;37.360;-122.046;2022-07-29T00:57:35;100751.56;;;21.94;75.28
66543;BME280;53395;37.360;-122.046;2022-07-29T01:00:04;100758.09;;;21.76;75.28
66543;BME280;53395;37.360;-122.046;2022-07-29T01:02:31;100761.44;;;21.65;75.54
66543;BME280;53395;37.360;-122.046;2022-07-29T01:04:57;100751.91;;;22.02;74.07
66543;BME280;53395;37.360;-122.046;2022-07-29T01:07:25;100761.28;;;22.08;74.02
66543;BME280;53395;37.360;-122.046;2022-07-29T01:09:53;100764.19;;;22.17;73.59
66543;BME280;53395;37.360;-122.046;2022-07-29T01:12:28;100757.25;;;22.55;73.09
66543;BME280;53395;37.360;-122.046;2022-07-29T01:14:55;100754.13;;;21.95;75.52
66543;BME280;53395;37.360;-122.046;2022-07-29T01:29:02;100761.22;;;21.26;77.52
66543;BME280;53395;37.360;-122.046;2022-07-29T01:31:48;100761.59;;;20.92;79.39
66543;BME280;53395;37.360;-122.046;2022-07-29T01:34:23;100768.03;;;20.43;82.02
66543;BME280;53395;37.360;-122.046;2022-07-29T01:36:55;100761.78;;;21.03;79.84
66543;BME280;53395;37.360;-122.046;2022-07-29T01:39:30;100763.13;;;20.81;80.15
66543;BME280;53395;37.360;-122.046;2022-07-29T01:42:09;100765.09;;;20.47;82.64
66543;BME280;53395;37.360;-122.046;2022-07-29T01:44:41;100753.56;;;20.48;83.16
66543;BME280;53395;37.360;-122.046;2022-07-29T01:47:14;100755.72;;;20.42;83.60
66543;BME280;53395;37.360;-122.046;2022-07-29T01:49:47;100762.72;;;20.43;83.31
66543;BME280;53395;37.360;-122.046;2022-07-29T01:53:06;100760.47;;;20.51;82.54
66543;BME280;53395;37.360;-122.046;2022-07-29T01:55:12;100757.16;;;20.17;84.25
66543;BME280;53395;37.360;-122.046;2022-07-29T01:57:40;100765.06;;;19.87;86.16
66543;BME280;53395;37.360;-122.046;2022-07-29T02:00:08;100756.00;;;19.59;87.43
66543;BME280;53395;37.360;-122.046;2022-07-29T02:02:36;100760.47;;;19.75;87.79
66543;BME280;53395;37.360;-122.046;2022-07-29T02:05:06;100759.34;;;19.63;86.99
66543;BME280;53395;37.360;-122.046;2022-07-29T02:07:34;100766.94;;;19.53;87.39
66543;BME280;53395;37.360;-122.046;2022-07-29T02:10:03;100758.91;;;19.39;88.36
66543;BME280;53395;37.360;-122.046;2022-07-29T02:12:32;100768.81;;;19.35;88.76
66543;BME280;53395;37.360;-122.046;2022-07-29T02:15:01;100765.47;;;19.63;88.24
66543;BME280;53395;37.360;-122.046;2022-07-29T02:17:42;100770.94;;;19.13;90.10
66543;BME280;53395;37.360;-122.046;2022-07-29T02:20:10;100771.81;;;19.29;89.00
66543;BME280;53395;37.360;-122.046;2022-07-29T02:22:39;100775.19;;;19.15;89.72
66543;BME280;53395;37.360;-122.046;2022-07-29T02:25:07;100778.59;;;19.01;90.50
66543;BME280;53395;37.360;-122.046;2022-07-29T02:27:35;100783.09;;;19.17;89.85
66543;BME280;53395;37.360;-122.046;2022-07-29T02:30:04;100773.28;;;19.01;90.64
66543;BME280;53395;37.360;-122.046;2022-07-29T02:32:32;100784.34;;;19.10;89.98
66543;BME280;53395;37.360;-122.046;2022-07-29T02:35:00;100779.44;;;19.02;90.47
66543;BME280;53395;37.360;-122.046;2022-07-29T02:37:27;100780.56;;;19.14;90.63
66543;BME280;53395;37.360;-122.046;2022-07-29T02:39:55;100779.72;;;18.80;93.23
66543;BME280;53395;37.360;-122.046;2022-07-29T02:42:24;100785.63;;;19.03;91.82
66543;BME280;53395;37.360;-122.046;2022-07-29T02:44:52;100791.47;;;18.74;93.23
66543;BME280;53395;37.360;-122.046;2022-07-29T02:50:00;100790.16;;;18.66;94.79
66543;BME280;53395;37.360;-122.046;2022-07-29T02:58:05;100798.94;;;18.31;95.28
66543;BME280;53395;37.360;-122.046;2022-07-29T03:00:37;100801.81;;;18.44;94.84
66543;BME280;53395;37.360;-122.046;2022-07-29T03:03:07;100800.91;;;18.63;93.84
66543;BME280;53395;37.360;-122.046;2022-07-29T03:05:35;100804.66;;;18.05;97.67
66543;BME280;53395;37.360;-122.046;2022-07-29T03:08:04;100800.16;;;18.07;97.50
66543;BME280;53395;37.360;-122.046;2022-07-29T03:10:32;100803.66;;;18.07;97.11
66543;BME280;53395;37.360;-122.046;2022-07-29T03:12:59;100809.22;;;18.01;97.74
66543;BME280;53395;37.360;-122.046;2022-07-29T03:15:26;100811.63;;;17.88;98.23
66543;BME280;53395;37.360;-122.046;2022-07-29T03:17:53;100804.38;;;18.11;97.79
66543;BME280;53395;37.360;-122.046;2022-07-29T03:20:21;100803.25;;;17.98;98.01
66543;BME280;53395;37.360;-122.046;2022-07-29T03:22:47;100805.72;;;18.01;97.72
66543;BME280;53395;37.360;-122.046;2022-07-29T03:25:16;100807.22;;;17.68;98.99
66543;BME280;53395;37.360;-122.046;2022-07-29T03:27:44;100804.75;;;17.84;98.94
66543;BME280;53395;37.360;-122.046;2022-07-29T03:30:12;100800.47;;;17.82;98.91
66543;BME280;53395;37.360;-122.046;2022-07-29T03:32:40;100803.28;;;17.77;97.89
66543;BME280;53395;37.360;-122.046;2022-07-29T03:35:07;100805.75;;;17.82;97.35
66543;BME280;53395;37.360;-122.046;2022-07-29T03:37:34;100807.81;;;17.56;99.96
66543;BME280;53395;37.360;-122.046;2022-07-29T03:40:05;100811.66;;;17.49;99.90
66543;BME280;53395;37.360;-122.046;2022-07-29T03:42:34;100814.81;;;17.57;100.00
66543;BME280;53395;37.360;-122.046;2022-07-29T03:45:05;100813.72;;;17.61;100.00
66543;BME280;53395;37.360;-122.046;2022-07-29T03:47:34;100802.41;;;17.59;98.85
66543;BME280;53395;37.360;-122.046;2022-07-29T03:50:06;100807.75;;;17.58;98.95
66543;BME280;53395;37.360;-122.046;2022-07-29T03:52:32;100810.53;;;17.54;98.93
66543;BME280;53395;37.360;-122.046;2022-07-29T03:54:59;100810.75;;;17.69;98.56
66543;BME280;53395;37.360;-122.046;2022-07-29T03:57:28;100812.88;;;17.42;99.95
66543;BME280;53395;37.360;-122.046;2022-07-29T03:59:55;100808.81;;;17.35;100.00
66543;BME280;53395;37.360;-122.046;2022-07-29T04:02:23;100813.59;;;17.64;98.31
66543;BME280;53395;37.360;-122.046;2022-07-29T04:04:51;100806.91;;;17.57;98.33
66543;BME280;53395;37.360;-122.046;2022-07-29T04:07:18;100815.22;;;17.29;99.70
66543;BME280;53395;37.360;-122.046;2022-07-29T04:09:45;100808.75;;;17.74;97.82
66543;BME280;53395;37.360;-122.046;2022-07-29T04:12:11;100810.88;;;17.47;98.44
66543;BME280;53395;37.360;-122.046;2022-07-29T04:14:37;100817.38;;;17.40;99.70
66543;BME280;53395;37.360;-122.046;2022-07-29T04:17:07;100817.88;;;17.29;99.87
66543;BME280;53395;37.360;-122.046;2022-07-29T04:19:33;100819.78;;;17.25;99.92
66543;BME280;53395;37.360;-122.046;2022-07-29T04:22:00;100814.13;;;17.33;98.65
66543;BME280;53395;37.360;-122.046;2022-07-29T04:24:27;100825.28;;;17.40;97.86
66543;BME280;53395;37.360;-122.046;2022-07-29T04:26:54;100818.09;;;17.04;98.99
66543;BME280;53395;37.360;-122.046;2022-07-29T04:29:20;100824.13;;;16.87;100.00
66543;BME280;53395;37.360;-122.046;2022-07-29T04:31:46;100826.63;;;16.90;99.45
66543;BME280;53395;37.360;-122.046;2022-07-29T04:34:13;100816.25;;;16.85;100.00
66543;BME280;53395;37.360;-122.046;2022-07-29T04:36:39;100826.28;;;16.77;100.00
66543;BME280;53395;37.360;-122.046;2022-07-29T04:39:05;100832.66;;;16.72;100.00
66543;BME280;53395;37.360;-122.046;2022-07-29T04:41:31;100839.66;;;16.73;100.00
66543;BME280;53395;37.360;-122.046;2022-07-29T04:43:57;100843.00;;;16.98;100.00
66543;BME280;53395;37.360;-122.046;2022-07-29T04:46:26;100848.41;;;16.95;100.00
66543;BME280;53395;37.360;-122.046;2022-07-29T04:48:52;100844.00;;;16.74;100.00
66543;BME280;53395;37.360;-122.046;2022-07-29T04:51:18;100844.81;;;16.76;100.00
66543;BME280;53395;37.360;-122.046;2022-07-29T04:53:45;100850.00;;;16.57;100.00
66543;BME280;53395;37.360;-122.046;2022-07-29T04:56:11;100848.50;;;16.72;100.00
66543;BME280;53395;37.360;-122.046;2022-07-29T04:58:37;100853.50;;;16.57;100.00
66543;BME280;53395;37.360;-122.046;2022-07-29T05:01:03;100850.75;;;16.60;100.00
66543;BME280;53395;37.360;-122.046;2022-07-29T05:03:29;100848.41;;;16.53;100.00
66543;BME280;53395;37.360;-122.046;2022-07-29T05:05:55;100855.66;;;16.47;100.00
66543;BME280;53395;37.360;-122.046;2022-07-29T05:08:21;100851.97;;;16.52;100.00
66543;BME280;53395;37.360;-122.046;2022-07-29T05:10:48;100855.97;;;16.40;100.00
66543;BME280;53395;37.360;-122.046;2022-07-29T05:13:14;100851.44;;;16.43;100.00
66543;BME280;53395;37.360;-122.046;2022-07-29T05:15:41;100856.78;;;16.42;100.00
66543;BME280;53395;37.360;-122.046;2022-07-29T05:18:07;100866.06;;;16.30;100.00
66543;BME280;53395;37.360;-122.046;2022-07-29T05:20:34;100862.06;;;16.42;100.00
66543;BME280;53395;37.360;-122.046;2022-07-29T05:23:00;100871.63;;;16.44;100.00
66543;BME280;53395;37.360;-122.046;2022-07-29T05:25:28;100868.13;;;16.44;100.00
66543;BME280;53395;37.360;-122.046;2022-07-29T05:27:55;100858.13;;;16.52;100.00
66543;BME280;53395;37.360;-122.046;2022-07-29T05:30:21;100865.69;;;16.60;100.00
66543;BME280;53395;37.360;-122.046;2022-07-29T05:32:48;100861.19;;;16.41;100.00
66543;BME280;53395;37.360;-122.046;2022-07-29T05:35:15;100850.41;;;16.25;100.00
66543;BME280;53395;37.360;-122.046;2022-07-29T05:37:42;100861.50;;;16.34;100.00
66543;BME280;53395;37.360;-122.046;2022-07-29T05:40:08;100873.66;;;16.38;100.00
66543;BME280;53395;37.360;-122.046;2022-07-29T05:42:35;100871.34;;;16.30;100.00
66543;BME280;53395;37.360;-122.046;2022-07-29T05:45:02;100874.38;;;16.41;100.00
66543;BME280;53395;37.360;-122.046;2022-07-29T05:47:29;100870.81;;;16.42;100.00
66543;BME280;53395;37.360;-122.046;2022-07-29T05:49:56;100871.00;;;16.38;100.00
66543;BME280;53395;37.360;-122.046;2022-07-29T05:52:22;100868.94;;;16.24;100.00
66543;BME280;53395;37.360;-122.046;2022-07-29T05:54:48;100867.91;;;16.28;100.00
66543;BME280;53395;37.360;-122.046;2022-07-29T05:57:20;100872.06;;;16.34;100.00
66543;BME280;53395;37.360;-122.046;2022-07-29T05:59:47;100867.56;;;15.92;100.00
66543;BME280;53395;37.360;-122.046;2022-07-29T06:02:13;100872.78;;;16.15;100.00
66543;BME280;53395;37.360;-122.046;2022-07-29T06:04:40;100865.66;;;16.17;100.00
66543;BME280;53395;37.360;-122.046;2022-07-29T06:07:07;100867.22;;;16.23;100.00
66543;BME280;53395;37.360;-122.046;2022-07-29T06:09:33;100858.88;;;16.12;100.00
66543;BME280;53395;37.360;-122.046;2022-07-29T06:12:00;100865.31;;;16.26;100.00
66543;BME280;53395;37.360;-122.046;2022-07-29T06:14:26;100875.53;;;16.34;100.00
66543;BME280;53395;37.360;-122.046;2022-07-29T06:16:54;100869.50;;;16.32;100.00
66543;BME280;53395;37.360;-122.046;2022-07-29T06:19:20;100871.25;;;16.32;100.00
66543;BME280;53395;37.360;-122.046;2022-07-29T06:21:47;100868.56;;;16.33;100.00
66543;BME280;53395;37.360;-122.046;2022-07-29T06:24:15;100869.03;;;16.43;100.00
66543;BME280;53395;37.360;-122.046;2022-07-29T06:26:42;100867.88;;;16.50;100.00
66543;BME280;53395;37.360;-122.046;2022-07-29T06:29:09;100872.47;;;16.45;100.00
66543;BME280;53395;37.360;-122.046;2022-07-29T06:31:39;100864.88;;;16.37;100.00
66543;BME280;53395;37.360;-122.046;2022-07-29T06:34:05;100871.44;;;16.49;100.00
66543;BME280;53395;37.360;-122.046;2022-07-29T06:36:33;100861.34;;;16.59;99.61
66543;BME280;53395;37.360;-122.046;2022-07-29T06:39:00;100869.25;;;16.16;100.00
66543;BME280;53395;37.360;-122.046;2022-07-29T06:41:26;100870.03;;;16.18;100.00
66543;BME280;53395;37.360;-122.046;2022-07-29T06:43:52;100864.88;;;16.15;100.00
66543;BME280;53395;37.360;-122.046;2022-07-29T06:46:20;100861.59;;;16.32;100.00
66543;BME280;53395;37.360;-122.046;2022-07-29T06:48:46;100854.72;;;16.28;100.00
66543;BME280;53395;37.360;-122.046;2022-07-29T06:51:16;100854.38;;;16.36;100.00
66543;BME280;53395;37.360;-122.046;2022-07-29T06:53:42;100848.06;;;16.40;100.00
66543;BME280;53395;37.360;-122.046;2022-07-29T06:56:09;100849.66;;;16.22;100.00
66543;BME280;53395;37.360;-122.046;2022-07-29T06:58:35;100847.22;;;16.17;100.00
66543;BME280;53395;37.360;-122.046;2022-07-29T07:01:03;100853.41;;;16.16;100.00
66543;BME280;53395;37.360;-122.046;2022-07-29T07:03:31;100850.47;;;16.24;100.00
66543;BME280;53395;37.360;-122.046;2022-07-29T07:05:57;100848.63;;;16.26;100.00
66543;BME280;53395;37.360;-122.046;2022-07-29T07:08:23;100850.41;;;16.25;100.00
66543;BME280;53395;37.360;-122.046;2022-07-29T07:10:50;100853.06;;;16.25;100.00
66543;BME280;53395;37.360;-122.046;2022-07-29T07:13:17;100853.25;;;16.21;100.00
66543;BME280;53395;37.360;-122.046;2022-07-29T07:15:45;100851.25;;;16.26;100.00
66543;BME280;53395;37.360;-122.046;2022-07-29T07:18:13;100855.25;;;16.36;100.00
66543;BME280;53395;37.360;-122.046;2022-07-29T07:20:40;100860.88;;;16.27;100.00
66543;BME280;53395;37.360;-122.046;2022-07-29T07:23:07;100864.63;;;16.21;100.00
66543;BME280;53395;37.360;-122.046;2022-07-29T07:25:34;100868.69;;;16.30;100.00
66543;BME280;53395;37.360;-122.046;2022-07-29T07:28:00;100863.22;;;16.35;100.00
66543;BME280;53395;37.360;-122.046;2022-07-29T07:30:26;100862.00;;;16.21;100.00
66543;BME280;53395;37.360;-122.046;2022-07-29T07:32:53;100867.09;;;16.26;100.00
66543;BME280;53395;37.360;-122.046;2022-07-29T07:35:19;100864.06;;;16.13;100.00
66543;BME280;53395;37.360;-122.046;2022-07-29T07:37:45;100877.16;;;16.16;100.00
66543;BME280;53395;37.360;-122.046;2022-07-29T07:40:12;100873.16;;;16.28;99.49
66543;BME280;53395;37.360;-122.046;2022-07-29T07:42:39;100879.88;;;16.13;100.00
66543;BME280;53395;37.360;-122.046;2022-07-29T07:45:06;100879.16;;;16.10;100.00
66543;BME280;53395;37.360;-122.046;2022-07-29T07:47:36;100877.25;;;16.13;100.00
66543;BME280;53395;37.360;-122.046;2022-07-29T07:50:07;100872.38;;;16.04;100.00
66543;BME280;53395;37.360;-122.046;2022-07-29T07:52:33;100879.41;;;16.03;100.00
66543;BME280;53395;37.360;-122.046;2022-07-29T07:55:00;100879.19;;;15.86;100.00
66543;BME280;53395;37.360;-122.046;2022-07-29T07:57:26;100876.16;;;15.97;100.00
66543;BME280;53395;37.360;-122.046;2022-07-29T07:59:52;100874.44;;;15.72;100.00
66543;BME280;53395;37.360;-122.046;2022-07-29T08:02:18;100869.63;;;15.83;100.00
66543;BME280;53395;37.360;-122.046;2022-07-29T08:04:45;100875.75;;;15.84;100.00
66543;BME280;53395;37.360;-122.046;2022-07-29T08:07:11;100869.38;;;15.66;100.00
66543;BME280;53395;37.360;-122.046;2022-07-29T08:09:37;100874.66;;;15.90;100.00
66543;BME280;53395;37.360;-122.046;2022-07-29T08:12:04;100864.19;;;15.88;100.00
66543;BME280;53395;37.360;-122.046;2022-07-29T08:14:31;100860.34;;;15.97;100.00
66543;BME280;53395;37.360;-122.046;2022-07-29T08:16:58;100855.25;;;15.92;100.00
66543;BME280;53395;37.360;-122.046;2022-07-29T08:19:24;100862.81;;;15.78;100.00
66543;BME280;53395;37.360;-122.046;2022-07-29T08:21:51;100862.44;;;15.87;100.00
66543;BME280;53395;37.360;-122.046;2022-07-29T08:24:19;100863.09;;;15.94;100.00
66543;BME280;53395;37.360;-122.046;2022-07-29T08:27:03;100856.72;;;15.99;100.00
66543;BME280;53395;37.360;-122.046;2022-07-29T08:29:30;100855.06;;;16.19;100.00
66543;BME280;53395;37.360;-122.046;2022-07-29T08:31:56;100851.72;;;15.92;100.00
66543;BME280;53395;37.360;-122.046;2022-07-29T08:34:22;100850.28;;;16.06;100.00
66543;BME280;53395;37.360;-122.046;2022-07-29T08:36:48;100852.88;;;16.30;100.00
66543;BME280;53395;37.360;-122.046;2022-07-29T08:39:14;100856.84;;;16.18;100.00
66543;BME280;53395;37.360;-122.046;2022-07-29T08:41:41;100850.47;;;16.24;100.00
66543;BME280;53395;37.360;-122.046;2022-07-29T08:44:07;100837.84;;;16.32;100.00
66543;BME280;53395;37.360;-122.046;2022-07-29T08:46:37;100836.91;;;16.33;100.00
66543;BME280;53395;37.360;-122.046;2022-07-29T08:49:05;100838.56;;;16.36;100.00
66543;BME280;53395;37.360;-122.046;2022-07-29T08:51:33;100827.34;;;16.31;100.00
66543;BME280;53395;37.360;-122.046;2022-07-29T08:54:01;100832.09;;;16.43;100.00
66543;BME280;53395;37.360;-122.046;2022-07-29T08:56:28;100834.31;;;16.54;100.00
66543;BME280;53395;37.360;-122.046;2022-07-29T08:58:57;100824.84;;;16.48;100.00
66543;BME280;53395;37.360;-122.046;2022-07-29T09:01:27;100835.50;;;16.46;100.00
66543;BME280;53395;37.360;-122.046;2022-07-29T09:03:57;100827.50;;;16.48;100.00
66543;BME280;53395;37.360;-122.046;2022-07-29T09:06:25;100831.31;;;16.41;100.00
66543;BME280;53395;37.360;-122.046;2022-07-29T09:08:55;100824.34;;;16.40;100.00
66543;BME280;53395;37.360;-122.046;2022-07-29T09:11:24;100824.25;;;16.41;100.00
66543;BME280;53395;37.360;-122.046;2022-07-29T09:13:50;100822.97;;;16.30;100.00
66543;BME280;53395;37.360;-122.046;2022-07-29T09:16:17;100817.88;;;16.25;100.00
66543;BME280;53395;37.360;-122.046;2022-07-29T09:18:45;100828.94;;;16.35;100.00
66543;BME280;53395;37.360;-122.046;2022-07-29T09:21:13;100820.66;;;16.22;100.00
66543;BME280;53395;37.360;-122.046;2022-07-29T09:24:06;100823.03;;;16.06;100.00
66543;BME280;53395;37.360;-122.046;2022-07-29T09:26:39;100817.47;;;16.36;100.00
66543;BME280;53395;37.360;-122.046;2022-07-29T09:29:09;100820.09;;;16.36;100.00
66543;BME280;53395;37.360;-122.046;2022-07-29T09:31:38;100820.19;;;16.12;100.00
66543;BME280;53395;37.360;-122.046;2022-07-29T09:34:06;100817.69;;;16.09;100.00
66543;BME280;53395;37.360;-122.046;2022-07-29T09:36:40;100823.34;;;15.98;100.00
66543;BME280;53395;37.360;-122.046;2022-07-29T09:39:07;100819.50;;;16.07;100.00
66543;BME280;53395;37.360;-122.046;2022-07-29T09:41:54;100821.72;;;15.96;100.00
66543;BME280;53395;37.360;-122.046;2022-07-29T09:44:22;100818.34;;;15.92;100.00
66543;BME280;53395;37.360;-122.046;2022-07-29T09:46:56;100813.09;;;15.92;100.00
66543;BME280;53395;37.360;-122.046;2022-07-29T09:49:24;100812.19;;;15.92;100.00
66543;BME280;53395;37.360;-122.046;2022-07-29T09:52:03;100798.59;;;16.02;100.00
66543;BME280;53395;37.360;-122.046;2022-07-29T09:54:29;100815.88;;;16.32;100.00
66543;BME280;53395;37.360;-122.046;2022-07-29T09:57:00;100810.47;;;16.35;100.00
66543;BME280;53395;37.360;-122.046;2022-07-29T09:59:26;100805.78;;;16.41;100.00
66543;BME280;53395;37.360;-122.046;2022-07-29T10:01:53;100799.56;;;16.44;100.00
66543;BME280;53395;37.360;-122.046;2022-07-29T10:04:20;100807.84;;;16.55;100.00
66543;BME280;53395;37.360;-122.046;2022-07-29T10:07:00;100807.53;;;16.63;100.00
66543;BME280;53395;37.360;-122.046;2022-07-29T10:09:26;100801.56;;;16.58;100.00
66543;BME280;53395;37.360;-122.046;2022-07-29T10:14:31;100806.28;;;16.51;100.00
66543;BME280;53395;37.360;-122.046;2022-07-29T10:17:02;100811.41;;;16.54;100.00
66543;BME280;53395;37.360;-122.046;2022-07-29T10:19:30;100808.38;;;16.63;100.00
66543;BME280;53395;37.360;-122.046;2022-07-29T10:22:02;100807.19;;;16.70;100.00
66543;BME280;53395;37.360;-122.046;2022-07-29T10:24:30;100806.84;;;16.37;100.00
66543;BME280;53395;37.360;-122.046;2022-07-29T10:26:59;100796.41;;;16.34;100.00
66543;BME280;53395;37.360;-122.046;2022-07-29T10:29:25;100801.13;;;16.68;100.00
66543;BME280;53395;37.360;-122.046;2022-07-29T10:34:49;100800.28;;;16.68;100.00
66543;BME280;53395;37.360;-122.046;2022-07-29T10:43:19;100795.84;;;16.68;100.00
66543;BME280;53395;37.360;-122.046;2022-07-29T10:45:49;100801.00;;;16.51;100.00
66543;BME280;53395;37.360;-122.046;2022-07-29T10:48:16;100794.19;;;16.66;100.00
66543;BME280;53395;37.360;-122.046;2022-07-29T10:50:58;100797.31;;;16.76;100.00
66543;BME280;53395;37.360;-122.046;2022-07-29T10:53:50;100786.09;;;16.70;100.00
66543;BME280;53395;37.360;-122.046;2022-07-29T10:56:32;100791.91;;;16.58;99.81
66543;BME280;53395;37.360;-122.046;2022-07-29T11:01:47;100789.97;;;16.41;100.00
66543;BME280;53395;37.360;-122.046;2022-07-29T11:04:16;100793.38;;;16.23;100.00
66543;BME280;53395;37.360;-122.046;2022-07-29T11:09:28;100789.28;;;16.16;100.00
66543;BME280;53395;37.360;-122.046;2022-07-29T11:11:57;100794.66;;;16.35;99.86
66543;BME280;53395;37.360;-122.046;2022-07-29T11:15:00;100803.31;;;16.16;100.00
66543;BME280;53395;37.360;-122.046;2022-07-29T11:17:28;100800.72;;;16.15;100.00
66543;BME280;53395;37.360;-122.046;2022-07-29T11:22:58;100794.66;;;16.13;100.00
66543;BME280;53395;37.360;-122.046;2022-07-29T11:25:25;100788.22;;;16.20;100.00
66543;BME280;53395;37.360;-122.046;2022-07-29T11:27:52;100796.31;;;16.15;100.00
66543;BME280;53395;37.360;-122.046;2022-07-29T11:30:20;100800.56;;;16.19;100.00
66543;BME280;53395;37.360;-122.046;2022-07-29T11:32:46;100796.59;;;16.09;100.00
66543;BME280;53395;37.360;-122.046;2022-07-29T11:35:16;100798.84;;;15.96;100.00
66543;BME280;53395;37.360;-122.046;2022-07-29T11:37:43;100793.75;;;15.92;100.00
66543;BME280;53395;37.360;-122.046;2022-07-29T11:40:12;100789.53;;;16.10;100.00
66543;BME280;53395;37.360;-122.046;2022-07-29T11:42:40;100789.19;;;15.97;100.00
66543;BME280;53395;37.360;-122.046;2022-07-29T11:45:10;100793.16;;;16.07;100.00
66543;BME280;53395;37.360;-122.046;2022-07-29T11:47:39;100792.28;;;16.06;100.00
66543;BME280;53395;37.360;-122.046;2022-07-29T11:50:08;100796.28;;;15.95;100.00
66543;BME280;53395;37.360;-122.046;2022-07-29T11:52:37;100801.19;;;16.04;100.00
66543;BME280;53395;37.360;-122.046;2022-07-29T11:55:11;100799.22;;;16.09;100.00
66543;BME280;53395;37.360;-122.046;2022-07-29T11:57:46;100801.28;;;16.01;100.00
66543;BME280;53395;37.360;-122.046;2022-07-29T12:00:27;100796.25;;;16.17;99.14
66543;BME280;53395;37.360;-122.046;2022-07-29T12:02:54;100810.19;;;15.98;100.00
66543;BME280;53395;37.360;-122.046;2022-07-29T12:05:21;100804.78;;;16.01;100.00
66543;BME280;53395;37.360;-122.046;2022-07-29T12:07:57;100801.47;;;15.96;100.00
66543;BME280;53395;37.360;-122.046;2022-07-29T12:10:32;100803.69;;;16.07;100.00
66543;BME280;53395;37.360;-122.046;2022-07-29T12:12:59;100802.28;;;15.98;100.00
66543;BME280;53395;37.360;-122.046;2022-07-29T12:15:25;100802.22;;;16.00;100.00
66543;BME280;53395;37.360;-122.046;2022-07-29T12:17:52;100804.78;;;16.01;100.00
66543;BME280;53395;37.360;-122.046;2022-07-29T12:20:24;100803.38;;;15.93;100.00
66543;BME280;53395;37.360;-122.046;2022-07-29T12:22:51;100801.59;;;15.93;100.00
66543;BME280;53395;37.360;-122.046;2022-07-29T12:25:19;100803.81;;;16.04;100.00
66543;BME280;53395;37.360;-122.046;2022-07-29T12:27:46;100796.81;;;16.03;100.00
66543;BME280;53395;37.360;-122.046;2022-07-29T12:30:15;100810.13;;;16.00;100.00
66543;BME280;53395;37.360;-122.046;2022-07-29T12:32:47;100810.97;;;16.00;100.00
66543;BME280;53395;37.360;-122.046;2022-07-29T12:35:15;100808.75;;;15.90;100.00
66543;BME280;53395;37.360;-122.046;2022-07-29T12:37:43;100806.75;;;15.96;100.00
66543;BME280;53395;37.360;-122.046;2022-07-29T12:40:12;100801.78;;;16.11;100.00
66543;BME280;53395;37.360;-122.046;2022-07-29T12:42:39;100805.94;;;15.94;100.00
66543;BME280;53395;37.360;-122.046;2022-07-29T12:45:06;100816.78;;;15.87;100.00
66543;BME280;53395;37.360;-122.046;2022-07-29T12:47:33;100807.75;;;16.16;100.00
66543;BME280;53395;37.360;-122.046;2022-07-29T12:50:16;100805.75;;;15.99;100.00
66543;BME280;53395;37.360;-122.046;2022-07-29T12:52:46;100806.75;;;15.96;100.00
66543;BME280;53395;37.360;-122.046;2022-07-29T12:55:13;100809.69;;;15.89;100.00
66543;BME280;53395;37.360;-122.046;2022-07-29T12:57:49;100801.28;;;16.01;100.00
66543;BME280;53395;37.360;-122.046;2022-07-29T13:00:23;100796.59;;;16.09;100.00